Time;durP1;ratioP1;P1;durP2;ratioP2;P2;SDS_P1;SDS_P2;PMS_P1;PMS_P2;Temp;Humidity;BMP_temperature;BMP_pressure;BME280_temperature;BME280_humidity;BME280_pressure;Samples;Min_cycle;Max_cycle;Signal;HPM_P1;HPM_P2
2022/08/21 00:00:08;;;;;;;7.05;4.95;;;16.10;99.90;;;;;;5049022;28;20045;-70
2022/08/21 00:02:33;;;;;;;5.82;4.70;;;16.00;99.90;;;;;;5048870;28;20071;-71
2022/08/21 00:04:59;;;;;;;5.68;4.50;;;16.00;99.90;;;;;;5048576;28;20138;-71
2022/08/21 00:07:25;;;;;;;8.35;5.07;;;15.90;99.90;;;;;;5051242;28;20535;-71
2022/08/21 00:09:52;;;;;;;7.68;4.32;;;15.70;99.90;;;;;;5052680;28;20029;-71
2022/08/21 00:12:18;;;;;;;6.50;5.10;;;16.00;99.90;;;;;;5061758;28;20044;-71
2022/08/21 00:14:43;;;;;;;6.22;4.40;;;15.80;99.90;;;;;;5060723;28;20013;-71
2022/08/21 00:17:09;;;;;;;4.72;4.13;;;16.70;99.90;;;;;;5061891;28;20036;-71
2022/08/21 00:19:35;;;;;;;6.53;4.47;;;15.80;99.90;;;;;;5071820;28;20127;-71
2022/08/21 00:22:00;;;;;;;6.53;4.68;;;15.90;99.90;;;;;;5072404;28;20154;-71
2022/08/21 00:24:26;;;;;;;8.90;4.55;;;15.70;99.90;;;;;;5072149;28;20039;-71
2022/08/21 00:26:52;;;;;;;6.72;4.40;;;15.80;99.90;;;;;;5072273;28;20473;-71
2022/08/21 00:29:18;;;;;;;5.22;3.78;;;15.70;99.90;;;;;;5072083;28;20028;-71
2022/08/21 00:31:44;;;;;;;5.00;4.50;;;15.70;99.90;;;;;;5072230;28;20095;-71
2022/08/21 00:34:11;;;;;;;9.38;4.47;;;15.70;99.90;;;;;;5071566;28;20028;-71
2022/08/21 00:36:37;;;;;;;6.10;4.38;;;15.70;99.90;;;;;;5072196;28;20032;-70
2022/08/21 00:39:04;;;;;;;7.00;4.53;;;16.90;99.90;;;;;;5072221;28;20499;-70
2022/08/21 00:41:30;;;;;;;7.07;4.85;;;15.60;99.90;;;;;;5071913;28;20024;-70
2022/08/21 00:43:56;;;;;;;4.47;3.50;;;15.60;99.90;;;;;;5070211;28;20040;-70
2022/08/21 00:46:22;;;;;;;12.02;5.30;;;15.50;99.90;;;;;;5071805;28;20028;-70
2022/08/21 00:48:47;;;;;;;6.93;4.38;;;15.50;99.90;;;;;;5071418;28;20085;-70
2022/08/21 00:51:32;;;;;;;7.45;4.55;;;15.50;99.90;;;;;;5071710;28;20029;-70
2022/08/21 00:54:00;;;;;;;5.53;4.47;;;15.60;99.90;;;;;;5058311;28;20021;-71
2022/08/21 00:56:28;;;;;;;7.30;5.10;;;15.50;99.90;;;;;;5051400;28;20367;-70
2022/08/21 00:58:56;;;;;;;6.97;5.03;;;15.40;99.90;;;;;;5051430;28;20040;-70
2022/08/21 01:01:22;;;;;;;5.75;4.28;;;15.40;99.90;;;;;;5051120;28;20036;-71
2022/08/21 01:03:48;;;;;;;5.35;4.22;;;15.40;99.90;;;;;;5051111;28;20029;-70
2022/08/21 01:06:13;;;;;;;4.38;3.97;;;15.40;99.90;;;;;;5052330;28;20032;-70
2022/08/21 01:08:39;;;;;;;6.45;4.90;;;15.40;99.90;;;;;;5052987;28;20397;-70
2022/08/21 01:11:05;;;;;;;7.45;4.50;;;15.40;99.90;;;;;;5053135;28;20025;-70
2022/08/21 01:13:34;;;;;;;5.32;3.88;;;15.80;99.90;;;;;;5050359;28;20163;-70
2022/08/21 01:16:04;;;;;;;5.85;4.47;;;15.30;99.90;;;;;;5051217;28;20057;-70
2022/08/21 01:18:29;;;;;;;11.45;4.88;;;15.40;99.90;;;;;;5061102;28;20028;-70
2022/08/21 01:21:05;;;;;;;4.82;4.05;;;15.40;99.90;;;;;;5052547;28;20040;-70
2022/08/21 01:23:32;;;;;;;7.75;6.00;;;15.30;99.90;;;;;;5050579;28;20103;-71
2022/08/21 01:25:58;;;;;;;9.48;5.40;;;15.10;99.90;;;;;;5051276;28;20064;-70
2022/08/21 01:28:24;;;;;;;5.72;4.80;;;15.20;99.90;;;;;;5050480;28;20053;-70
2022/08/21 01:30:52;;;;;;;6.07;5.20;;;15.20;99.90;;;;;;5050719;28;20098;-70
2022/08/21 01:33:21;;;;;;;7.22;5.38;;;15.20;99.90;;;;;;5050302;28;20558;-70
2022/08/21 01:35:47;;;;;;;6.30;5.50;;;15.10;99.90;;;;;;5051274;28;20021;-70
2022/08/21 01:38:13;;;;;;;5.97;5.43;;;15.10;99.90;;;;;;5050689;28;20123;-70
2022/08/21 01:40:39;;;;;;;7.78;5.97;;;15.20;99.90;;;;;;5050667;28;20428;-70
2022/08/21 01:43:04;;;;;;;9.27;5.85;;;15.00;99.90;;;;;;5050827;28;20025;-70
2022/08/21 01:45:30;;;;;;;6.82;6.15;;;15.00;99.90;;;;;;5050133;28;20029;-71
2022/08/21 01:47:56;;;;;;;9.95;5.80;;;15.00;99.90;;;;;;5050975;28;20501;-70
2022/08/21 01:50:22;;;;;;;6.80;6.00;;;15.00;99.90;;;;;;5050409;28;20041;-70
2022/08/21 01:52:49;;;;;;;6.78;6.15;;;15.80;99.90;;;;;;5050948;28;20722;-70
2022/08/21 01:55:18;;;;;;;10.23;5.95;;;15.00;99.90;;;;;;5050815;28;20029;-71
2022/08/21 01:57:44;;;;;;;7.90;5.38;;;15.70;99.90;;;;;;5050460;28;20021;-70
2022/08/21 02:00:13;;;;;;;7.07;5.63;;;14.90;99.90;;;;;;5049450;28;20142;-70
2022/08/21 02:02:40;;;;;;;11.02;7.03;;;14.90;99.90;;;;;;5050582;28;20021;-70
2022/08/21 02:05:07;;;;;;;9.85;5.60;;;14.90;99.90;;;;;;5050525;28;20032;-71
2022/08/21 02:07:48;;;;;;;8.15;6.10;;;14.80;99.90;;;;;;5049499;28;20032;-70
2022/08/21 02:10:16;;;;;;;7.13;6.30;;;14.80;99.90;;;;;;5049945;28;20056;-70
2022/08/21 02:12:41;;;;;;;10.73;6.78;;;14.90;99.90;;;;;;5063146;28;20113;-70
2022/08/21 02:15:09;;;;;;;10.00;6.55;;;14.80;99.90;;;;;;5069965;28;20082;-71
2022/08/21 02:17:47;;;;;;;7.75;6.93;;;14.90;99.90;;;;;;5069981;28;20473;-70
2022/08/21 02:20:18;;;;;;;9.38;7.43;;;14.90;99.90;;;;;;5069710;28;20052;-70
2022/08/21 02:22:44;;;;;;;9.15;7.25;;;15.70;99.90;;;;;;5070037;28;20615;-70
2022/08/21 02:25:10;;;;;;;9.70;7.93;;;14.80;99.90;;;;;;5069978;28;20108;-70
2022/08/21 02:27:41;;;;;;;11.98;8.25;;;14.80;99.90;;;;;;5068784;28;20116;-70
2022/08/21 02:30:08;;;;;;;11.40;8.52;;;14.90;99.90;;;;;;5066779;28;20029;-70
2022/08/21 02:32:34;;;;;;;11.70;8.57;;;14.80;99.90;;;;;;5068390;28;20496;-70
2022/08/21 02:34:59;;;;;;;9.57;8.10;;;14.70;99.90;;;;;;5070123;28;20025;-70
2022/08/21 02:37:25;;;;;;;12.77;8.55;;;14.70;99.90;;;;;;5069648;28;20036;-70
2022/08/21 02:39:50;;;;;;;10.50;8.35;;;14.80;99.90;;;;;;5069989;28;20036;-70
2022/08/21 02:42:17;;;;;;;12.77;9.20;;;14.80;99.90;;;;;;5069643;28;20031;-70
2022/08/21 02:44:43;;;;;;;13.15;8.63;;;14.80;99.90;;;;;;5069627;28;20051;-70
2022/08/21 02:47:08;;;;;;;13.60;9.20;;;14.80;99.90;;;;;;5069943;28;20020;-70
2022/08/21 02:49:34;;;;;;;11.73;8.57;;;14.80;99.90;;;;;;5069558;28;20086;-70
2022/08/21 02:51:59;;;;;;;9.55;8.43;;;14.70;99.90;;;;;;5069812;28;20052;-70
2022/08/21 02:54:25;;;;;;;9.85;8.75;;;14.50;99.90;;;;;;5069637;28;20075;-70
2022/08/21 02:56:51;;;;;;;10.10;8.95;;;14.80;99.90;;;;;;5069816;28;20032;-71
2022/08/21 02:59:16;;;;;;;11.45;9.10;;;14.80;99.90;;;;;;5054309;28;20044;-70
2022/08/21 03:01:42;;;;;;;12.45;8.93;;;14.60;99.90;;;;;;5059632;28;20111;-70
2022/08/21 03:04:07;;;;;;;11.27;8.95;;;14.50;99.90;;;;;;5069774;28;20449;-70
2022/08/21 03:06:33;;;;;;;12.40;10.38;;;14.60;99.90;;;;;;5069324;28;20036;-70
2022/08/21 03:08:59;;;;;;;12.00;8.70;;;14.50;99.90;;;;;;5069693;28;20470;-70
2022/08/21 03:11:26;;;;;;;11.38;9.73;;;14.60;99.90;;;;;;5055170;28;20029;-70
2022/08/21 03:13:51;;;;;;;10.88;9.77;;;14.50;99.90;;;;;;5069217;28;20017;-71
2022/08/21 03:16:19;;;;;;;12.00;9.68;;;14.40;99.90;;;;;;5069142;28;20020;-70
2022/08/21 03:18:44;;;;;;;11.93;9.93;;;14.40;99.90;;;;;;5068058;28;20370;-70
2022/08/21 03:21:10;;;;;;;10.52;9.02;;;14.40;99.90;;;;;;5069407;28;20039;-70
2022/08/21 03:23:37;;;;;;;10.27;9.27;;;14.30;99.90;;;;;;5069254;28;20025;-70
2022/08/21 03:26:03;;;;;;;13.82;9.65;;;15.30;99.90;;;;;;5069074;28;20021;-70
2022/08/21 03:28:28;;;;;;;11.00;9.77;;;14.40;99.90;;;;;;5068212;28;20392;-70
2022/08/21 03:30:54;;;;;;;11.70;9.52;;;14.30;99.90;;;;;;5064602;28;20024;-70
2022/08/21 03:33:20;;;;;;;13.35;9.95;;;14.40;99.90;;;;;;5068380;28;20096;-70
2022/08/21 03:35:52;;;;;;;13.48;9.93;;;14.40;99.90;;;;;;5056246;28;20028;-70
2022/08/21 03:38:17;;;;;;;11.30;9.80;;;14.30;99.90;;;;;;5069120;28;20060;-70
2022/08/21 03:40:43;;;;;;;14.05;10.07;;;15.70;99.90;;;;;;5069168;28;20500;-70
2022/08/21 03:43:09;;;;;;;10.40;9.40;;;14.40;99.90;;;;;;5072869;28;20082;-70
2022/08/21 03:45:35;;;;;;;11.07;9.95;;;14.30;99.90;;;;;;5072955;28;20469;-70
2022/08/21 03:48:02;;;;;;;12.77;11.35;;;14.40;99.90;;;;;;5072959;28;20031;-72
2022/08/21 03:50:34;;;;;;;15.00;10.68;;;14.30;99.90;;;;;;5072431;28;20142;-70
2022/08/21 03:52:59;;;;;;;13.88;10.68;;;14.40;99.90;;;;;;5073008;28;20017;-70
2022/08/21 03:55:26;;;;;;;11.27;10.23;;;14.30;99.90;;;;;;5072585;28;20090;-70
2022/08/21 03:57:52;;;;;;;12.05;10.68;;;14.20;99.90;;;;;;5072658;28;20065;-70
2022/08/21 04:00:19;;;;;;;14.90;10.45;;;14.30;99.90;;;;;;5061799;28;20490;-70
2022/08/21 04:02:45;;;;;;;12.15;10.85;;;14.10;99.90;;;;;;5071440;28;20078;-70
2022/08/21 04:05:12;;;;;;;18.55;11.07;;;14.20;99.90;;;;;;5072539;28;20033;-70
2022/08/21 04:07:38;;;;;;;13.32;10.25;;;14.10;99.90;;;;;;5069514;28;20066;-70
2022/08/21 04:10:06;;;;;;;22.08;12.85;;;14.20;99.90;;;;;;5056735;28;20100;-70
2022/08/21 04:12:31;;;;;;;15.00;11.43;;;14.10;99.90;;;;;;5063323;28;20024;-70
2022/08/21 04:14:57;;;;;;;12.90;11.65;;;14.00;99.90;;;;;;5072489;28;20110;-71
2022/08/21 04:17:22;;;;;;;12.98;11.68;;;14.10;99.90;;;;;;5072137;28;20382;-70
2022/08/21 04:19:49;;;;;;;12.38;11.10;;;14.00;99.90;;;;;;5072396;28;20035;-70
2022/08/21 04:22:15;;;;;;;14.57;11.68;;;14.00;99.90;;;;;;5072104;28;20028;-70
2022/08/21 04:24:41;;;;;;;16.73;12.93;;;14.10;99.90;;;;;;5072645;28;20542;-70
2022/08/21 04:27:06;;;;;;;16.13;12.60;;;14.20;99.90;;;;;;5071795;28;20029;-71
2022/08/21 04:29:32;;;;;;;13.43;11.70;;;14.10;99.90;;;;;;5067980;28;20033;-70
2022/08/21 04:31:57;;;;;;;13.68;12.38;;;13.80;99.90;;;;;;5069419;28;20020;-70
2022/08/21 04:34:23;;;;;;;13.88;12.50;;;13.90;99.90;;;;;;5071958;28;20039;-70
2022/08/21 04:36:48;;;;;;;16.25;12.77;;;14.10;99.90;;;;;;5072259;28;20017;-70
2022/08/21 04:39:14;;;;;;;12.98;11.63;;;14.00;99.90;;;;;;5071572;28;20108;-70
2022/08/21 04:41:41;;;;;;;12.68;11.43;;;14.00;99.90;;;;;;5071936;28;20020;-70
2022/08/21 04:44:07;;;;;;;16.33;13.43;;;13.90;99.90;;;;;;5071987;28;20024;-70
2022/08/21 04:46:33;;;;;;;13.98;12.65;;;13.90;99.90;;;;;;5071735;28;20488;-70
2022/08/21 04:48:59;;;;;;;14.95;12.18;;;13.90;99.90;;;;;;5072068;28;20020;-70
2022/08/21 04:51:31;;;;;;;14.88;11.40;;;13.90;99.90;;;;;;5071601;28;20027;-70
2022/08/21 04:54:02;;;;;;;21.77;12.67;;;14.00;99.90;;;;;;5069928;28;20062;-70
2022/08/21 04:56:34;;;;;;;18.05;13.85;;;13.90;99.90;;;;;;5071684;28;20037;-70
2022/08/21 04:59:03;;;;;;;13.82;11.88;;;13.90;99.90;;;;;;5071486;28;20439;-70
2022/08/21 05:01:32;;;;;;;13.43;12.07;;;14.00;99.90;;;;;;5059912;28;20029;-70
2022/08/21 05:04:00;;;;;;;13.65;12.27;;;13.90;99.90;;;;;;5071723;28;20028;-70
2022/08/21 05:06:28;;;;;;;16.95;13.15;;;13.90;99.90;;;;;;5071186;28;20037;-70
2022/08/21 05:08:56;;;;;;;17.73;12.20;;;13.90;99.90;;;;;;5069975;28;20619;-70
2022/08/21 05:11:22;;;;;;;14.50;12.50;;;13.70;99.90;;;;;;5056676;28;20045;-70
2022/08/21 05:13:48;;;;;;;13.63;11.98;;;14.80;99.90;;;;;;5071816;28;20125;-70
2022/08/21 05:16:15;;;;;;;14.80;13.13;;;13.90;99.90;;;;;;5071048;28;20020;-70
2022/08/21 05:18:41;;;;;;;15.88;12.85;;;13.90;99.90;;;;;;5071578;28;20013;-70
2022/08/21 05:21:06;;;;;;;14.27;12.18;;;14.10;99.90;;;;;;5071566;28;20028;-70
2022/08/21 05:23:32;;;;;;;14.07;12.68;;;14.00;99.90;;;;;;5070299;28;20025;-70
2022/08/21 05:25:58;;;;;;;15.73;12.73;;;14.00;99.90;;;;;;5071370;28;20094;-70
2022/08/21 05:28:23;;;;;;;14.93;13.40;;;14.10;99.90;;;;;;5070715;28;20059;-70
2022/08/21 05:30:49;;;;;;;13.57;12.15;;;14.00;99.90;;;;;;5062356;28;20715;-71
2022/08/21 05:33:15;;;;;;;18.25;12.93;;;14.10;99.90;;;;;;5059371;28;20091;-71
2022/08/21 05:35:40;;;;;;;15.55;12.27;;;14.30;99.90;;;;;;5071150;28;20012;-70
2022/08/21 05:38:06;;;;;;;18.38;13.73;;;14.30;99.90;;;;;;5070693;28;20028;-70
2022/08/21 05:40:32;;;;;;;16.52;12.63;;;14.20;99.90;;;;;;5070226;28;20089;-70
2022/08/21 05:42:58;;;;;;;13.07;11.73;;;14.40;99.90;;;;;;5071132;28;20032;-70
2022/08/21 05:45:27;;;;;;;15.40;13.57;;;14.50;99.90;;;;;;5070289;28;20099;-70
2022/08/21 05:47:53;;;;;;;16.17;13.73;;;14.50;99.90;;;;;;5070923;28;20021;-71
2022/08/21 05:50:19;;;;;;;17.55;15.60;;;14.60;99.90;;;;;;5070122;28;20020;-70
2022/08/21 05:52:44;;;;;;;15.95;14.45;;;14.60;99.90;;;;;;5070416;28;20479;-70
2022/08/21 05:55:10;;;;;;;17.40;14.65;;;14.70;99.90;;;;;;5070495;28;20025;-70
2022/08/21 05:57:35;;;;;;;16.02;14.52;;;14.70;99.90;;;;;;5070336;28;20445;-70
2022/08/21 06:00:01;;;;;;;18.88;15.45;;;14.80;99.90;;;;;;5060667;28;20049;-70
2022/08/21 06:02:26;;;;;;;19.15;15.23;;;14.90;99.90;;;;;;5066482;28;20096;-70
2022/08/21 06:04:52;;;;;;;17.83;15.98;;;14.90;99.90;;;;;;5069999;28;20024;-70
2022/08/21 06:07:17;;;;;;;18.45;14.63;;;14.90;99.90;;;;;;5069779;28;20031;-70
2022/08/21 06:09:43;;;;;;;17.02;15.30;;;14.90;99.90;;;;;;5067935;28;20153;-70
2022/08/21 06:12:10;;;;;;;17.60;15.85;;;15.00;99.90;;;;;;5058754;28;20492;-70
2022/08/21 06:14:38;;;;;;;22.05;16.50;;;15.10;99.90;;;;;;5069928;28;20443;-70
2022/08/21 06:17:09;;;;;;;22.10;16.38;;;15.10;99.90;;;;;;5070386;28;20013;-70
2022/08/21 06:19:35;;;;;;;16.50;14.93;;;15.10;99.90;;;;;;5070008;28;20032;-70
2022/08/21 06:22:00;;;;;;;14.40;12.95;;;15.20;99.90;;;;;;5069851;28;20043;-70
2022/08/21 06:24:26;;;;;;;15.45;13.02;;;15.30;99.90;;;;;;5070003;28;20040;-70
2022/08/21 06:26:53;;;;;;;17.42;13.82;;;15.40;99.90;;;;;;5070164;28;20100;-71
2022/08/21 06:29:19;;;;;;;16.98;14.73;;;15.40;99.90;;;;;;5066234;28;20100;-71
2022/08/21 06:31:46;;;;;;;16.20;14.10;;;15.60;99.90;;;;;;5060862;28;20059;-70
2022/08/21 06:34:12;;;;;;;15.52;12.77;;;15.50;99.90;;;;;;5069932;28;20033;-70
2022/08/21 06:36:38;;;;;;;15.43;13.20;;;15.60;99.90;;;;;;5069517;28;20093;-70
2022/08/21 06:39:04;;;;;;;17.98;13.40;;;15.60;99.90;;;;;;5069924;28;20528;-70
2022/08/21 06:41:30;;;;;;;13.40;12.07;;;15.70;99.90;;;;;;5069917;28;20111;-70
2022/08/21 06:43:55;;;;;;;17.35;13.07;;;15.80;99.90;;;;;;5069846;28;20048;-70
2022/08/21 06:46:23;;;;;;;15.00;11.90;;;15.80;99.90;;;;;;5069683;28;20048;-70
2022/08/21 06:48:49;;;;;;;14.93;12.82;;;15.70;99.90;;;;;;5069532;28;20485;-70
2022/08/21 06:51:15;;;;;;;15.68;13.88;;;15.90;99.90;;;;;;5054565;28;20508;-70
2022/08/21 06:53:40;;;;;;;17.50;12.00;;;16.00;99.90;;;;;;5053282;28;20071;-70
2022/08/21 06:56:06;;;;;;;15.65;12.30;;;16.00;99.90;;;;;;5049549;28;20029;-70
2022/08/21 06:58:31;;;;;;;15.43;12.70;;;16.10;99.90;;;;;;5053578;28;20468;-70
2022/08/21 07:00:57;;;;;;;15.88;10.30;;;16.10;99.90;;;;;;5049128;28;20048;-70
2022/08/21 07:03:32;;;;;;;14.27;12.63;;;16.20;99.90;;;;;;5052526;28;20619;-70
2022/08/21 07:05:58;;;;;;;16.02;12.52;;;16.30;99.90;;;;;;5048671;28;20048;-70
2022/08/21 07:08:25;;;;;;;18.40;12.18;;;16.40;99.90;;;;;;5048947;28;20486;-70
2022/08/21 07:10:52;;;;;;;15.57;11.07;;;16.30;99.90;;;;;;5049353;28;20686;-70
2022/08/21 07:13:18;;;;;;;15.02;11.25;;;16.40;99.90;;;;;;5049222;28;20620;-71
2022/08/21 07:15:44;;;;;;;17.58;10.63;;;16.60;99.90;;;;;;5050835;28;20013;-70
2022/08/21 07:18:11;;;;;;;13.75;11.35;;;16.60;99.90;;;;;;5068763;28;20021;-70
2022/08/21 07:20:37;;;;;;;17.00;11.38;;;16.80;99.90;;;;;;5051547;28;20029;-70
2022/08/21 07:23:07;;;;;;;18.10;10.75;;;16.90;99.90;;;;;;5053613;28;20021;-70
2022/08/21 07:25:33;;;;;;;16.20;11.88;;;16.90;99.90;;;;;;5053176;28;20029;-70
2022/08/21 07:27:58;;;;;;;19.50;9.73;;;17.00;99.90;;;;;;5053537;28;20017;-71
2022/08/21 07:30:24;;;;;;;19.15;12.05;;;17.10;99.90;;;;;;5060728;28;20087;-71
2022/08/21 07:32:50;;;;;;;15.95;10.82;;;17.10;99.90;;;;;;5053315;28;20025;-70
2022/08/21 07:35:18;;;;;;;16.70;10.85;;;17.30;99.90;;;;;;5052486;28;20025;-70
2022/08/21 07:37:43;;;;;;;19.13;9.95;;;17.60;99.90;;;;;;5060886;28;20025;-70
2022/08/21 07:40:09;;;;;;;24.48;11.65;;;17.80;99.90;;;;;;5053634;28;20363;-70
2022/08/21 07:42:41;;;;;;;15.88;9.23;;;17.70;99.90;;;;;;5059392;28;20545;-70
2022/08/21 07:45:07;;;;;;;11.40;7.82;;;17.90;99.90;;;;;;5053012;28;20060;-70
2022/08/21 07:47:32;;;;;;;15.40;8.18;;;18.10;99.90;;;;;;5052086;28;20021;-70
2022/08/21 07:49:58;;;;;;;13.10;10.07;;;18.20;99.90;;;;;;5052476;28;20040;-70
2022/08/21 07:52:23;;;;;;;14.25;8.73;;;19.50;99.90;;;;;;5060439;28;20374;-70
2022/08/21 07:54:49;;;;;;;14.40;8.57;;;18.50;99.90;;;;;;5052618;28;20029;-70
2022/08/21 07:57:14;;;;;;;11.50;8.52;;;18.50;99.90;;;;;;5052215;28;20052;-70
2022/08/21 07:59:40;;;;;;;16.23;9.93;;;18.50;99.90;;;;;;5053506;28;20145;-70
2022/08/21 08:02:06;;;;;;;13.93;8.40;;;18.50;99.90;;;;;;5052611;28;20155;-70
2022/08/21 08:04:31;;;;;;;14.77;8.73;;;20.70;99.90;;;;;;5051858;28;20377;-71
2022/08/21 08:06:57;;;;;;;14.27;8.20;;;18.50;99.90;;;;;;5052657;28;20077;-70
2022/08/21 08:09:22;;;;;;;15.73;8.27;;;18.50;99.90;;;;;;5052433;28;20024;-70
2022/08/21 08:11:48;;;;;;;15.25;7.85;;;18.60;99.90;;;;;;5057481;28;20090;-70
2022/08/21 08:14:13;;;;;;;12.75;7.95;;;18.50;99.90;;;;;;5070562;28;20092;-70
2022/08/21 08:16:39;;;;;;;20.10;9.73;;;18.80;99.90;;;;;;5072300;28;20063;-70
2022/08/21 08:19:04;;;;;;;10.40;8.27;;;18.80;99.90;;;;;;5072013;28;20110;-71
2022/08/21 08:21:32;;;;;;;15.32;7.97;;;19.00;99.90;;;;;;5072086;28;20092;-71
2022/08/21 08:23:57;;;;;;;12.43;8.15;;;19.10;99.90;;;;;;5072567;28;20085;-71
2022/08/21 08:26:23;;;;;;;15.20;8.63;;;19.30;99.90;;;;;;5072087;28;20020;-71
2022/08/21 08:28:48;;;;;;;14.20;7.55;;;19.40;99.90;;;;;;5071204;28;20074;-70
2022/08/21 08:31:14;;;;;;;20.55;8.95;;;19.30;99.90;;;;;;5066360;28;20493;-70
2022/08/21 08:33:40;;;;;;;14.25;7.95;;;19.40;99.90;;;;;;5054942;28;20029;-70
2022/08/21 08:36:13;;;;;;;17.73;7.57;;;19.60;99.90;;;;;;5064497;28;20021;-70
2022/08/21 08:38:38;;;;;;;19.08;7.38;;;19.70;99.90;;;;;;5068456;28;20373;-71
2022/08/21 08:41:15;;;;;;;13.63;6.88;;;19.70;99.90;;;;;;5066282;28;20025;-70
2022/08/21 08:43:52;;;;;;;11.55;7.78;;;19.80;99.90;;;;;;5065707;28;20024;-70
2022/08/21 08:46:25;;;;;;;10.55;6.15;;;20.00;99.90;;;;;;5061920;28;20021;-70
2022/08/21 08:48:56;;;;;;;11.00;6.93;;;20.10;99.90;;;;;;5068153;28;20039;-70
2022/08/21 08:51:45;;;;;;;15.57;7.25;;;20.20;99.90;;;;;;5071969;28;20029;-70
2022/08/21 08:54:17;;;;;;;18.58;7.43;;;20.30;99.90;;;;;;5061467;28;20123;-70
2022/08/21 08:56:44;;;;;;;14.63;7.50;;;20.30;99.90;;;;;;5071878;28;20028;-70
2022/08/21 08:59:24;;;;;;;16.67;6.40;;;20.40;99.90;;;;;;5071366;28;20047;-70
2022/08/21 09:01:51;;;;;;;14.95;6.43;;;20.60;99.90;;;;;;5071331;28;20028;-70
2022/08/21 09:04:23;;;;;;;12.40;5.88;;;20.30;99.90;;;;;;5071398;28;20020;-71
2022/08/21 09:07:14;;;;;;;8.63;5.70;;;20.40;99.90;;;;;;5071523;28;20032;-69
2022/08/21 09:09:51;;;;;;;11.45;4.90;;;20.50;99.80;;;;;;5069805;28;20029;-70
2022/08/21 09:12:33;;;;;;;12.52;4.38;;;20.70;99.30;;;;;;5060026;28;20028;-70
2022/08/21 09:15:06;;;;;;;10.82;4.13;;;20.70;99.40;;;;;;5057551;28;20028;-70
2022/08/21 09:18:02;;;;;;;12.07;5.20;;;20.80;98.70;;;;;;5070137;28;20021;-70
2022/08/21 09:20:49;;;;;;;12.27;4.57;;;20.80;99.10;;;;;;5071197;28;20458;-70
2022/08/21 09:23:22;;;;;;;7.47;4.13;;;20.80;98.60;;;;;;5056346;28;20024;-70
2022/08/21 09:26:11;;;;;;;12.23;4.60;;;20.90;99.20;;;;;;5057445;28;20035;-71
2022/08/21 09:28:37;;;;;;;11.75;4.15;;;21.00;98.50;;;;;;5069127;28;20024;-70
2022/08/21 09:31:08;;;;;;;7.57;3.22;;;21.00;98.90;;;;;;5070495;28;20035;-73
2022/08/21 09:33:33;;;;;;;7.80;2.75;;;21.10;98.70;;;;;;5070388;28;20029;-71
2022/08/21 09:35:59;;;;;;;8.85;3.45;;;21.20;98.00;;;;;;5070429;28;20030;-71
2022/08/21 09:38:34;;;;;;;8.93;4.22;;;21.30;97.90;;;;;;5069896;28;20024;-70
2022/08/21 09:41:06;;;;;;;8.75;3.13;;;23.20;98.40;;;;;;5070704;28;20028;-71
2022/08/21 09:43:33;;;;;;;10.38;3.45;;;21.30;97.90;;;;;;5070634;28;20028;-70
2022/08/21 09:46:23;;;;;;;9.18;3.25;;;21.50;97.70;;;;;;5069089;28;20048;-71
2022/08/21 09:48:52;;;;;;;13.13;2.72;;;21.60;97.50;;;;;;5063197;28;20051;-71
2022/08/21 09:51:21;;;;;;;8.95;2.00;;;22.60;97.40;;;;;;5062467;28;20501;-71
2022/08/21 09:54:08;;;;;;;7.22;2.63;;;21.30;96.80;;;;;;5049960;28;20203;-71
2022/08/21 09:59:31;;;;;;;6.78;2.30;;;21.70;96.30;;;;;;5048315;28;20194;-71
2022/08/21 10:02:01;;;;;;;8.48;2.67;;;21.80;96.20;;;;;;5047966;28;20108;-71
2022/08/21 10:04:35;;;;;;;10.05;1.90;;;22.00;95.80;;;;;;5050454;28;20106;-71
2022/08/21 10:07:12;;;;;;;7.35;2.65;;;21.90;95.70;;;;;;5050301;28;20036;-71
2022/08/21 10:09:39;;;;;;;7.78;2.03;;;22.20;95.00;;;;;;5050584;28;20013;-71
2022/08/21 10:12:22;;;;;;;9.75;1.75;;;22.20;95.30;;;;;;5056839;28;20245;-71
2022/08/21 10:14:55;;;;;;;;;;;22.30;94.50;;;;;;5066023;28;20031;-71
2022/08/21 10:17:33;;;;;;;7.43;2.35;;;22.40;94.60;;;;;;5070204;28;19961;-71
2022/08/21 10:20:16;;;;;;;7.93;2.13;;;23.00;95.10;;;;;;5069978;28;20041;-71
2022/08/21 10:23:07;;;;;;;6.47;1.40;;;22.70;94.70;;;;;;5070120;28;20031;-70
2022/08/21 10:25:41;;;;;;;7.78;2.35;;;22.80;93.80;;;;;;5043291;28;20465;-70
2022/08/21 10:28:13;;;;;;;7.60;1.65;;;23.70;94.20;;;;;;5069524;28;20036;-70
2022/08/21 10:30:57;;;;;;;7.90;1.63;;;23.00;93.70;;;;;;5056685;28;20370;-70
2022/08/21 10:33:43;;;;;;;9.63;1.30;;;23.10;92.50;;;;;;5069650;28;20480;-71
2022/08/21 10:36:35;;;;;;;8.68;1.73;;;23.10;92.30;;;;;;5069354;28;20470;-71
2022/08/21 10:39:06;;;;;;;4.82;1.38;;;22.80;92.70;;;;;;5069422;28;20028;-70
2022/08/21 10:41:41;;;;;;;7.18;2.10;;;23.10;91.60;;;;;;5070015;28;20027;-70
2022/08/21 10:44:26;;;;;;;5.70;2.17;;;23.30;92.70;;;;;;5068373;28;20024;-69
2022/08/21 10:47:01;;;;;;;5.72;1.58;;;23.20;92.40;;;;;;5069173;28;20073;-72
2022/08/21 10:49:47;;;;;;;10.63;1.92;;;23.40;91.50;;;;;;5056681;28;20024;-69
2022/08/21 10:52:18;;;;;;;6.97;1.98;;;23.40;91.30;;;;;;5055375;28;20052;-69
2022/08/21 10:55:06;;;;;;;6.57;1.92;;;23.40;92.10;;;;;;5069800;28;20024;-70
2022/08/21 10:57:58;;;;;;;6.53;1.48;;;23.40;91.40;;;;;;5067702;28;20445;-70
2022/08/21 11:00:40;;;;;;;3.58;1.13;;;23.40;91.50;;;;;;5068866;28;20424;-72
2022/08/21 11:03:13;;;;;;;5.35;1.73;;;23.40;92.00;;;;;;5068224;28;20040;-70
2022/08/21 11:06:00;;;;;;;4.28;0.93;;;24.00;92.00;;;;;;5069519;28;20036;-70
2022/08/21 11:08:31;;;;;;;7.10;1.70;;;23.50;91.90;;;;;;5068208;28;20100;-70
2022/08/21 11:11:06;;;;;;;9.65;1.75;;;23.50;90.30;;;;;;5057067;28;20029;-70
2022/08/21 11:13:53;;;;;;;3.63;1.08;;;23.60;91.20;;;;;;5069097;28;20021;-71
2022/08/21 11:16:42;;;;;;;4.18;1.38;;;23.60;91.20;;;;;;5069399;28;20025;-70
2022/08/21 11:19:40;;;;;;;6.75;1.48;;;23.80;90.30;;;;;;5044048;28;20167;-70
2022/08/21 11:22:15;;;;;;;4.25;1.05;;;23.70;89.60;;;;;;5038570;28;20041;-71
2022/08/21 11:24:55;;;;;;;4.95;2.08;;;23.60;90.50;;;;;;5059377;28;20074;-72
2022/08/21 11:27:33;;;;;;;7.35;1.52;;;23.50;90.60;;;;;;5043223;28;20033;-70
2022/08/21 11:30:00;;;;;;;4.68;1.52;;;23.30;90.00;;;;;;5069113;28;20017;-70
2022/08/21 11:32:51;;;;;;;2.55;1.20;;;23.30;90.90;;;;;;5061700;28;20059;-70
2022/08/21 11:35:38;;;;;;;4.72;2.15;;;23.30;90.70;;;;;;5065790;28;20028;-70
2022/08/21 11:38:12;;;;;;;6.85;1.33;;;23.30;90.50;;;;;;5069261;28;20035;-70
2022/08/21 11:40:51;;;;;;;4.40;1.15;;;23.20;91.20;;;;;;5067456;28;20036;-70
2022/08/21 11:43:42;;;;;;;4.65;1.08;;;23.10;90.90;;;;;;5051559;28;20059;-70
2022/08/21 11:46:22;;;;;;;5.63;1.30;;;23.20;90.20;;;;;;5037059;28;20052;-70
2022/08/21 11:48:58;;;;;;;6.38;1.50;;;23.10;90.10;;;;;;5053971;28;20139;-70
2022/08/21 11:51:59;;;;;;;5.53;1.48;;;23.10;88.80;;;;;;5059139;28;20029;-69
2022/08/21 11:54:37;;;;;;;5.03;1.45;;;23.20;90.00;;;;;;5005740;28;20061;-71
2022/08/21 11:57:13;;;;;;;7.10;1.13;;;23.20;89.80;;;;;;5005859;28;20050;-71
2022/08/21 11:59:52;;;;;;;2.38;1.17;;;23.50;90.30;;;;;;5004014;28;20045;-71
2022/08/21 12:02:21;;;;;;;3.08;0.63;;;23.70;89.00;;;;;;5005333;28;20080;-71
2022/08/21 12:04:53;;;;;;;5.25;1.20;;;23.30;89.70;;;;;;5009598;28;20042;-70
2022/08/21 12:07:40;;;;;;;5.85;2.03;;;23.80;87.40;;;;;;5009103;28;20049;-70
2022/08/21 12:10:20;;;;;;;11.70;2.38;;;23.90;87.10;;;;;;5009343;28;20030;-70
2022/08/21 12:12:46;;;;;;;7.15;1.67;;;24.10;88.30;;;;;;5009186;28;20034;-70
2022/08/21 12:15:21;;;;;;;6.05;1.40;;;24.70;87.50;;;;;;5009666;28;20085;-71
2022/08/21 12:17:57;;;;;;;7.45;2.08;;;23.90;87.90;;;;;;4993586;28;20080;-70
2022/08/21 12:21:03;;;;;;;10.40;1.88;;;23.80;87.40;;;;;;5009731;28;20034;-71
2022/08/21 12:23:31;;;;;;;4.85;1.40;;;23.90;85.80;;;;;;5008609;28;20089;-70
2022/08/21 12:26:13;;;;;;;4.93;1.25;;;23.90;87.00;;;;;;5010231;28;20030;-72
2022/08/21 12:28:39;;;;;;;3.85;0.82;;;24.10;85.50;;;;;;5010587;28;20022;-71
2022/08/21 12:31:18;;;;;;;2.72;1.10;;;24.10;86.30;;;;;;5019381;28;20033;-72
2022/08/21 12:33:53;;;;;;;4.32;1.55;;;24.30;86.10;;;;;;5051566;28;20438;-72
2022/08/21 12:36:25;;;;;;;3.88;0.95;;;25.20;86.00;;;;;;5051969;28;20025;-72
2022/08/21 12:39:06;;;;;;;3.35;1.10;;;24.50;84.00;;;;;;5053748;28;20508;-70
2022/08/21 12:41:46;;;;;;;4.47;0.95;;;24.80;82.80;;;;;;5069690;28;20511;-69
2022/08/21 12:44:20;;;;;;;1.33;0.85;;;24.60;81.60;;;;;;5067346;28;20070;-70
2022/08/21 12:46:48;;;;;;;4.57;1.00;;;24.60;81.50;;;;;;5065238;28;20020;-70
2022/08/21 12:49:18;;;;;;;4.03;1.23;;;24.70;81.80;;;;;;5070019;28;20033;-69
2022/08/21 12:51:53;;;;;;;4.93;0.93;;;24.80;81.40;;;;;;5071555;28;20024;-69
2022/08/21 12:54:28;;;;;;;3.72;0.70;;;24.90;79.30;;;;;;5057753;28;20074;-69